createdAt,value
2019-01-04T00:00:30.815Z,18.37
2019-01-04T00:01:30.742Z,18.36
2019-01-04T00:02:30.694Z,18.36
2019-01-04T00:03:30.714Z,18.37
2019-01-04T00:04:31.040Z,18.36
2019-01-04T00:05:30.495Z,18.35
2019-01-04T00:06:30.498Z,18.33
2019-01-04T00:07:30.925Z,18.35
2019-01-04T00:08:30.324Z,18.35
2019-01-04T00:09:30.273Z,18.33
2019-01-04T00:10:30.312Z,18.33
2019-01-04T00:11:30.402Z,18.35
2019-01-04T00:12:30.408Z,18.33
2019-01-04T00:13:30.369Z,18.33
2019-01-04T00:14:30.387Z,18.32
2019-01-04T00:15:30.583Z,18.32
2019-01-04T00:16:30.447Z,18.29
2019-01-04T00:17:30.144Z,18.3
2019-01-04T00:18:30.348Z,18.3
2019-01-04T00:19:30.604Z,18.29
2019-01-04T00:20:30.732Z,18.3
2019-01-04T00:21:30.802Z,18.29
2019-01-04T00:22:30.409Z,18.28
2019-01-04T00:23:30.721Z,18.29
2019-01-04T00:24:30.189Z,18.25
2019-01-04T00:25:30.521Z,18.25
2019-01-04T00:26:30.606Z,18.26
2019-01-04T00:27:30.272Z,18.26
2019-01-04T00:28:30.291Z,18.22
2019-01-04T00:29:30.207Z,18.25
2019-01-04T00:30:30.299Z,18.23
2019-01-04T00:31:30.316Z,18.22
2019-01-04T00:32:30.394Z,18.23
2019-01-04T00:33:30.539Z,18.21
2019-01-04T00:34:30.327Z,18.22
2019-01-04T00:35:30.238Z,18.21
2019-01-04T00:36:30.823Z,18.21
2019-01-04T00:37:30.238Z,18.19
2019-01-04T00:38:30.739Z,18.19
2019-01-04T00:39:30.825Z,18.19
2019-01-04T00:40:30.489Z,18.22
2019-01-04T00:41:30.600Z,18.18
2019-01-04T00:42:30.559Z,18.19
2019-01-04T00:43:30.708Z,18.19
2019-01-04T00:44:30.328Z,18.18
2019-01-04T00:45:31.081Z,18.16
2019-01-04T00:46:30.396Z,18.13
2019-01-04T00:47:30.246Z,18.18
2019-01-04T00:48:30.609Z,18.18
2019-01-04T00:49:30.730Z,18.16
2019-01-04T00:50:31.125Z,18.15
2019-01-04T00:51:30.399Z,18.13
2019-01-04T00:52:30.507Z,18.12
2019-01-04T00:53:30.288Z,18.12
2019-01-04T00:54:30.360Z,18.12
2019-01-04T00:55:30.121Z,18.12
2019-01-04T00:56:30.639Z,18.11
2019-01-04T00:57:30.207Z,18.12
2019-01-04T00:58:30.783Z,18.13
2019-01-04T00:59:30.229Z,18.11
2019-01-04T01:00:30.785Z,18.11
2019-01-04T01:01:31.098Z,18.08
2019-01-04T01:02:30.839Z,18.07
2019-01-04T01:03:30.824Z,18.08
2019-01-04T01:04:30.898Z,18.09
2019-01-04T01:05:30.738Z,18.07
2019-01-04T01:06:31.329Z,18.08
2019-01-04T01:07:30.639Z,18.08
2019-01-04T01:08:31.046Z,18.08
2019-01-04T01:09:30.757Z,18.08
2019-01-04T01:10:30.251Z,18.08
2019-01-04T01:11:30.686Z,18.07
2019-01-04T01:12:30.221Z,18.05
2019-01-04T01:13:30.450Z,18.04
2019-01-04T01:14:30.797Z,18.01
2019-01-04T01:15:30.507Z,18.02
2019-01-04T01:16:30.623Z,18.04
2019-01-04T01:17:30.415Z,18.02
2019-01-04T01:18:30.296Z,18.02
2019-01-04T01:19:30.384Z,18.04
2019-01-04T01:20:30.225Z,18.02
2019-01-04T01:21:30.629Z,18.04
2019-01-04T01:22:30.228Z,18.01
2019-01-04T01:23:30.149Z,17.98
2019-01-04T01:24:30.751Z,18.01
2019-01-04T01:25:30.138Z,18
2019-01-04T01:26:30.666Z,18.01
2019-01-04T01:27:30.371Z,18.01
2019-01-04T01:28:31.127Z,18
2019-01-04T01:29:30.751Z,18
2019-01-04T01:30:30.691Z,17.98
2019-01-04T01:31:30.509Z,17.98
2019-01-04T01:32:30.168Z,17.98
2019-01-04T01:33:30.177Z,17.97
2019-01-04T01:34:30.671Z,17.97
2019-01-04T01:35:30.142Z,17.95
2019-01-04T01:36:30.302Z,17.97
2019-01-04T01:37:30.448Z,17.97
2019-01-04T01:38:30.247Z,17.94
2019-01-04T01:39:30.544Z,17.95
2019-01-04T01:40:30.090Z,17.95
2019-01-04T01:41:30.428Z,17.95
2019-01-04T01:42:30.645Z,17.94
2019-01-04T01:43:30.924Z,17.94
2019-01-04T01:44:30.809Z,17.93
2019-01-04T01:45:30.134Z,17.93
2019-01-04T01:46:30.193Z,17.93
2019-01-04T01:47:30.168Z,17.93
2019-01-04T01:48:30.297Z,17.94
2019-01-04T01:49:30.362Z,17.94
2019-01-04T01:50:30.418Z,17.93
2019-01-04T01:51:30.279Z,17.91
2019-01-04T01:52:30.346Z,17.89
2019-01-04T01:53:30.149Z,17.88
2019-01-04T01:54:30.678Z,17.89
2019-01-04T01:55:30.293Z,17.88
2019-01-04T01:56:30.333Z,17.88
2019-01-04T01:57:30.783Z,17.89
2019-01-04T01:58:30.172Z,17.87
2019-01-04T01:59:30.767Z,17.89
2019-01-04T02:00:30.366Z,17.87
2019-01-04T02:01:30.324Z,17.87
2019-01-04T02:02:30.416Z,17.85
2019-01-04T02:03:30.221Z,17.85
2019-01-04T02:04:30.940Z,17.85
2019-01-04T02:05:30.055Z,17.84
2019-01-04T02:06:30.424Z,17.84
2019-01-04T02:07:30.309Z,17.84
2019-01-04T02:08:30.181Z,17.84
2019-01-04T02:09:30.361Z,17.85
2019-01-04T02:10:30.041Z,17.85
2019-01-04T02:11:30.241Z,17.82
2019-01-04T02:12:30.227Z,17.84
2019-01-04T02:13:30.288Z,17.84
2019-01-04T02:14:30.329Z,17.82
2019-01-04T02:15:30.285Z,17.82
2019-01-04T02:16:30.252Z,17.81
2019-01-04T02:17:30.509Z,17.81
2019-01-04T02:18:30.226Z,17.84
2019-01-04T02:19:30.416Z,17.8
2019-01-04T02:20:30.173Z,17.8
2019-01-04T02:21:30.465Z,17.8
2019-01-04T02:22:30.242Z,17.81
2019-01-04T02:23:31.035Z,17.78
2019-01-04T02:24:30.562Z,17.8
2019-01-04T02:25:30.350Z,17.77
2019-01-04T02:26:30.425Z,17.78
2019-01-04T02:27:30.261Z,17.77
2019-01-04T02:28:30.508Z,17.78
2019-01-04T02:29:30.919Z,17.76
2019-01-04T02:30:30.841Z,17.78
2019-01-04T02:31:30.553Z,17.78
2019-01-04T02:32:30.432Z,17.8
2019-01-04T02:33:30.551Z,17.76
2019-01-04T02:34:30.519Z,17.77
2019-01-04T02:35:30.265Z,17.76
2019-01-04T02:36:30.397Z,17.76
2019-01-04T02:37:31.196Z,17.74
2019-01-04T02:38:30.189Z,17.74
2019-01-04T02:39:30.403Z,17.77
2019-01-04T02:40:30.727Z,17.77
2019-01-04T02:41:30.452Z,17.73
2019-01-04T02:42:30.275Z,17.74
2019-01-04T02:43:30.801Z,17.74
2019-01-04T02:44:30.318Z,17.76
2019-01-04T02:45:31.186Z,17.74
2019-01-04T02:46:30.371Z,17.74
2019-01-04T02:47:30.778Z,17.73
2019-01-04T02:48:30.106Z,17.73
2019-01-04T02:49:30.471Z,17.71
2019-01-04T02:50:30.237Z,17.73
2019-01-04T02:51:30.159Z,17.71
2019-01-04T02:52:30.244Z,17.73
2019-01-04T02:53:30.461Z,17.7
2019-01-04T02:54:30.460Z,17.7
2019-01-04T02:55:30.390Z,17.7
2019-01-04T02:56:30.463Z,17.7
2019-01-04T02:57:31.197Z,17.7
2019-01-04T02:58:30.756Z,17.67
2019-01-04T02:59:30.289Z,17.7
2019-01-04T03:00:30.680Z,17.7
2019-01-04T03:01:30.092Z,17.67
2019-01-04T03:02:30.121Z,17.68
2019-01-04T03:03:30.306Z,17.7
2019-01-04T03:04:30.170Z,17.67
2019-01-04T03:05:30.173Z,17.68
2019-01-04T03:06:30.391Z,17.66
2019-01-04T03:07:30.584Z,17.67
2019-01-04T03:08:31.026Z,17.66
2019-01-04T03:09:30.329Z,17.67
2019-01-04T03:10:30.651Z,17.67
2019-01-04T03:11:30.386Z,17.66
2019-01-04T03:12:30.488Z,17.64
2019-01-04T03:13:30.702Z,17.63
2019-01-04T03:14:30.549Z,17.64
2019-01-04T03:15:30.131Z,17.63
2019-01-04T03:16:30.870Z,17.63
2019-01-04T03:17:30.225Z,17.63
2019-01-04T03:18:30.228Z,17.64
2019-01-04T03:19:30.390Z,17.63
2019-01-04T03:20:30.475Z,17.64
2019-01-04T03:21:30.389Z,17.63
2019-01-04T03:22:30.992Z,17.63
2019-01-04T03:23:30.618Z,17.63
2019-01-04T03:24:30.794Z,17.61
2019-01-04T03:25:30.367Z,17.61
2019-01-04T03:26:30.508Z,17.61
2019-01-04T03:27:30.336Z,17.6
2019-01-04T03:28:30.611Z,17.6
2019-01-04T03:29:30.327Z,17.63
2019-01-04T03:30:30.593Z,17.61
2019-01-04T03:31:30.428Z,17.6
2019-01-04T03:32:30.098Z,17.6
2019-01-04T03:33:30.687Z,17.61
2019-01-04T03:34:31.428Z,17.61
2019-01-04T03:35:30.238Z,17.57
2019-01-04T03:36:30.277Z,17.59
2019-01-04T03:37:30.244Z,17.57
2019-01-04T03:38:30.730Z,17.59
2019-01-04T03:39:30.332Z,17.57
2019-01-04T03:40:30.242Z,17.59
2019-01-04T03:41:30.238Z,17.59
2019-01-04T03:42:30.636Z,17.59
2019-01-04T03:43:30.143Z,17.56
2019-01-04T03:44:30.086Z,17.56
2019-01-04T03:45:30.120Z,17.57
2019-01-04T03:46:30.456Z,17.54
2019-01-04T03:47:30.123Z,17.57
2019-01-04T03:48:30.327Z,17.57
2019-01-04T03:49:30.341Z,17.59
2019-01-04T03:50:30.138Z,17.56
2019-01-04T03:51:30.342Z,17.57
2019-01-04T03:52:30.053Z,17.54
2019-01-04T03:53:30.371Z,17.54
2019-01-04T03:54:30.383Z,17.56
2019-01-04T03:55:30.204Z,17.54
2019-01-04T03:56:30.408Z,17.53
2019-01-04T03:57:30.119Z,17.54
2019-01-04T03:58:30.321Z,17.54
2019-01-04T03:59:30.410Z,17.54
2019-01-04T04:00:30.095Z,17.54
2019-01-04T04:01:30.674Z,17.53
2019-01-04T04:02:30.180Z,17.54
2019-01-04T04:03:30.433Z,17.53
2019-01-04T04:04:30.140Z,17.53
2019-01-04T04:05:30.085Z,17.52
2019-01-04T04:06:30.388Z,17.52
2019-01-04T04:07:30.395Z,17.52
2019-01-04T04:08:30.348Z,17.52
2019-01-04T04:09:30.322Z,17.49
2019-01-04T04:10:30.180Z,17.52
2019-01-04T04:11:31.142Z,17.52
2019-01-04T04:12:30.183Z,17.52
2019-01-04T04:13:30.242Z,17.52
2019-01-04T04:14:30.108Z,17.5
2019-01-04T04:15:30.104Z,17.5
2019-01-04T04:16:30.638Z,17.49
2019-01-04T04:17:30.113Z,17.48
2019-01-04T04:18:30.341Z,17.5
2019-01-04T04:19:29.951Z,17.48
2019-01-04T04:20:30.230Z,17.48
2019-01-04T04:21:30.438Z,17.48
2019-01-04T04:22:30.719Z,17.49
2019-01-04T04:23:30.620Z,17.46
2019-01-04T04:24:30.008Z,17.48
2019-01-04T04:25:30.665Z,17.48
2019-01-04T04:26:30.527Z,17.49
2019-01-04T04:27:30.338Z,17.46
2019-01-04T04:28:30.845Z,17.45
2019-01-04T04:29:30.252Z,17.46
2019-01-04T04:30:30.557Z,17.45
2019-01-04T04:31:31.152Z,17.46
2019-01-04T04:32:30.209Z,17.45
2019-01-04T04:33:30.328Z,17.45
2019-01-04T04:34:30.516Z,17.46
2019-01-04T04:35:30.394Z,17.43
2019-01-04T04:36:30.318Z,17.46
2019-01-04T04:37:30.435Z,17.43
2019-01-04T04:38:30.269Z,17.45
2019-01-04T04:39:29.982Z,17.46
2019-01-04T04:40:30.994Z,17.46
2019-01-04T04:41:30.239Z,17.45
2019-01-04T04:42:30.041Z,17.45
2019-01-04T04:43:30.496Z,17.43
2019-01-04T04:44:30.294Z,17.45
2019-01-04T04:45:30.095Z,17.43
2019-01-04T04:46:30.372Z,17.45
2019-01-04T04:47:30.279Z,17.45
2019-01-04T04:48:30.504Z,17.46
2019-01-04T04:49:30.272Z,17.45
2019-01-04T04:50:30.188Z,17.46
2019-01-04T04:51:30.186Z,17.49
2019-01-04T04:52:30.016Z,17.5
2019-01-04T04:53:30.739Z,17.49
2019-01-04T04:54:30.358Z,17.52
2019-01-04T04:55:30.302Z,17.5
2019-01-04T04:56:30.249Z,17.54
2019-01-04T04:57:30.050Z,17.53
2019-01-04T04:58:30.527Z,17.57
2019-01-04T04:59:30.438Z,17.59
2019-01-04T05:00:30.259Z,17.61
2019-01-04T05:01:30.334Z,17.61
2019-01-04T05:02:30.222Z,17.63
2019-01-04T05:03:30.201Z,17.63
2019-01-04T05:04:30.162Z,17.67
2019-01-04T05:05:30.059Z,17.68
2019-01-04T05:06:30.566Z,17.7
2019-01-04T05:07:30.268Z,17.68
2019-01-04T05:08:30.231Z,17.74
2019-01-04T05:09:30.378Z,17.77
2019-01-04T05:10:30.178Z,17.76
2019-01-04T05:11:30.121Z,17.78
2019-01-04T05:12:29.881Z,17.8
2019-01-04T05:13:30.160Z,17.78
2019-01-04T05:14:30.190Z,17.81
2019-01-04T05:15:30.463Z,17.82
2019-01-04T05:16:30.322Z,17.87
2019-01-04T05:17:31.443Z,17.87
2019-01-04T05:18:30.318Z,17.89
2019-01-04T05:19:29.995Z,17.89
2019-01-04T05:20:30.370Z,17.94
2019-01-04T05:21:30.297Z,17.94
2019-01-04T05:22:30.355Z,17.97
2019-01-04T05:23:30.141Z,17.98
2019-01-04T05:24:30.166Z,18
2019-01-04T05:25:30.166Z,18
2019-01-04T05:26:30.235Z,18.02
2019-01-04T05:27:30.420Z,18.04
2019-01-04T05:28:30.281Z,18.07
2019-01-04T05:29:30.258Z,18.05
2019-01-04T05:30:30.071Z,18.09
2019-01-04T05:31:30.310Z,18.11
2019-01-04T05:32:30.524Z,18.12
2019-01-04T05:33:30.114Z,18.13
2019-01-04T05:34:30.247Z,18.13
2019-01-04T05:35:30.499Z,18.16
2019-01-04T05:36:30.236Z,18.18
2019-01-04T05:37:29.990Z,18.19
2019-01-04T05:38:30.083Z,18.19
2019-01-04T05:39:30.296Z,18.19
2019-01-04T05:40:30.246Z,18.23
2019-01-04T05:41:30.282Z,18.25
2019-01-04T05:42:29.976Z,18.28
2019-01-04T05:43:30.145Z,18.29
2019-01-04T05:44:30.172Z,18.28
2019-01-04T05:45:30.178Z,18.3
2019-01-04T05:46:30.094Z,18.3
2019-01-04T05:47:30.283Z,18.35
2019-01-04T05:48:30.061Z,18.33
2019-01-04T05:49:30.192Z,18.37
2019-01-04T05:50:30.035Z,18.36
2019-01-04T05:51:30.313Z,18.37
2019-01-04T05:52:30.225Z,18.37
2019-01-04T05:53:30.276Z,18.41
2019-01-04T05:54:30.276Z,18.43
2019-01-04T05:55:30.124Z,18.4
2019-01-04T05:56:30.222Z,18.41
2019-01-04T05:57:29.959Z,18.43
2019-01-04T05:58:30.005Z,18.46
2019-01-04T05:59:31.117Z,18.47
2019-01-04T06:00:30.496Z,18.49
2019-01-04T06:01:30.396Z,18.47
2019-01-04T06:02:30.726Z,18.5
2019-01-04T06:03:30.113Z,18.5
2019-01-04T06:04:30.233Z,18.5
2019-01-04T06:05:30.148Z,18.5
2019-01-04T06:06:30.430Z,18.53
2019-01-04T06:07:30.720Z,18.53
2019-01-04T06:08:30.003Z,18.56
2019-01-04T06:09:30.172Z,18.57
2019-01-04T06:10:30.555Z,18.57
2019-01-04T06:11:30.518Z,18.57
2019-01-04T06:12:30.345Z,18.6
2019-01-04T06:13:30.107Z,18.57
2019-01-04T06:14:30.193Z,18.62
2019-01-04T06:15:30.299Z,18.64
2019-01-04T06:16:30.104Z,18.63
2019-01-04T06:17:30.397Z,18.64
2019-01-04T06:18:30.082Z,18.67
2019-01-04T06:19:30.410Z,18.64
2019-01-04T06:20:31.074Z,18.67
2019-01-04T06:21:30.100Z,18.66
2019-01-04T06:22:30.557Z,18.68
2019-01-04T06:23:30.936Z,18.68
2019-01-04T06:24:30.035Z,18.71
2019-01-04T06:25:30.619Z,18.68
2019-01-04T06:26:30.117Z,18.73
2019-01-04T06:27:31.014Z,18.73
2019-01-04T06:28:30.206Z,18.73
2019-01-04T06:29:30.908Z,18.74
2019-01-04T06:30:30.208Z,18.75
2019-01-04T06:31:30.371Z,18.78
2019-01-04T06:32:30.121Z,18.81
2019-01-04T06:33:30.410Z,18.81
2019-01-04T06:34:30.580Z,18.81
2019-01-04T06:35:30.537Z,18.84
2019-01-04T06:36:30.876Z,18.87
2019-01-04T06:37:30.314Z,18.9
2019-01-04T06:38:30.669Z,18.87
2019-01-04T06:39:30.470Z,18.92
2019-01-04T06:40:30.337Z,18.94
2019-01-04T06:41:30.475Z,18.97
2019-01-04T06:42:31.025Z,18.99
2019-01-04T06:43:30.372Z,18.97
2019-01-04T06:44:31.111Z,19.01
2019-01-04T06:45:30.837Z,19.01
2019-01-04T06:46:30.196Z,19.01
2019-01-04T06:47:30.088Z,19.02
2019-01-04T06:48:30.274Z,18.99
2019-01-04T06:49:30.287Z,19.02
2019-01-04T06:50:30.424Z,19.02
2019-01-04T06:51:30.129Z,19.03
2019-01-04T06:52:30.247Z,19.05
2019-01-04T06:53:30.447Z,19.03
2019-01-04T06:54:30.354Z,19.05
2019-01-04T06:55:29.969Z,19.05
2019-01-04T06:56:30.199Z,19.06
2019-01-04T06:57:30.025Z,19.05
2019-01-04T06:58:30.114Z,19.06
2019-01-04T06:59:30.590Z,19.08
2019-01-04T07:00:29.951Z,19.06
2019-01-04T07:01:30.394Z,19.05
2019-01-04T07:02:30.240Z,19.05
2019-01-04T07:03:30.302Z,19.06
2019-01-04T07:04:30.730Z,19.06
2019-01-04T07:05:29.914Z,19.05
2019-01-04T07:06:30.271Z,19.03
2019-01-04T07:07:30.192Z,19.06
2019-01-04T07:08:30.480Z,19.05
2019-01-04T07:09:30.547Z,19.05
2019-01-04T07:10:30.279Z,19.05
2019-01-04T07:11:30.073Z,19.05
2019-01-04T07:12:30.698Z,19.03
2019-01-04T07:13:30.117Z,19.03
2019-01-04T07:14:30.107Z,19.03
2019-01-04T07:15:29.999Z,19.05
2019-01-04T07:16:30.296Z,19.03
2019-01-04T07:17:30.443Z,19.02
2019-01-04T07:18:30.046Z,19.03
2019-01-04T07:19:30.242Z,19.01
2019-01-04T07:20:29.919Z,18.99
2019-01-04T07:21:30.077Z,18.99
2019-01-04T07:22:30.344Z,19.01
2019-01-04T07:23:30.282Z,19.01
2019-01-04T07:24:30.034Z,18.99
2019-01-04T07:25:30.222Z,19.01
2019-01-04T07:26:30.128Z,19.01
2019-01-04T07:27:30.460Z,18.98
2019-01-04T07:28:29.994Z,18.97
2019-01-04T07:29:30.015Z,18.98
2019-01-04T07:30:30.717Z,18.94
2019-01-04T07:31:30.330Z,18.92
2019-01-04T07:32:30.365Z,18.94
2019-01-04T07:33:30.436Z,18.94
2019-01-04T07:34:30.093Z,18.94
2019-01-04T07:35:30.987Z,18.92
2019-01-04T07:36:30.304Z,18.94
2019-01-04T07:37:30.643Z,18.91
2019-01-04T07:38:30.882Z,18.9
2019-01-04T07:39:30.878Z,18.9
2019-01-04T07:40:30.149Z,18.88
2019-01-04T07:41:30.979Z,18.9
2019-01-04T07:42:30.376Z,18.88
2019-01-04T07:43:30.162Z,18.87
2019-01-04T07:44:30.489Z,18.84
2019-01-04T07:45:30.160Z,18.85
2019-01-04T07:46:30.258Z,18.83
2019-01-04T07:47:30.408Z,18.83
2019-01-04T07:48:30.453Z,18.81
2019-01-04T07:49:30.232Z,18.83
2019-01-04T07:50:30.996Z,18.8
2019-01-04T07:51:30.214Z,18.81
2019-01-04T07:52:30.446Z,18.81
2019-01-04T07:53:30.158Z,18.8
2019-01-04T07:54:31.585Z,18.74
2019-01-04T07:55:30.250Z,18.78
2019-01-04T07:56:30.212Z,18.74
2019-01-04T07:57:29.993Z,18.77
2019-01-04T07:58:30.150Z,18.75
2019-01-04T07:59:30.249Z,18.75
2019-01-04T08:00:30.414Z,18.73
2019-01-04T08:01:30.125Z,18.71
2019-01-04T08:02:30.483Z,18.71
2019-01-04T08:03:30.556Z,18.68
2019-01-04T08:04:30.249Z,18.71
2019-01-04T08:05:30.329Z,18.68
2019-01-04T08:06:30.147Z,18.67
2019-01-04T08:07:30.336Z,18.68
2019-01-04T08:08:30.172Z,18.66
2019-01-04T08:09:30.555Z,18.64
2019-01-04T08:10:30.031Z,18.66
2019-01-04T08:11:30.442Z,18.66
2019-01-04T08:12:30.111Z,18.63
2019-01-04T08:13:30.308Z,18.64
2019-01-04T08:14:30.382Z,18.63
2019-01-04T08:15:30.316Z,18.62
2019-01-04T08:16:30.469Z,18.62
2019-01-04T08:17:30.305Z,18.6
2019-01-04T08:18:30.066Z,18.6
2019-01-04T08:19:30.494Z,18.62
2019-01-04T08:20:29.947Z,18.58
2019-01-04T08:21:30.179Z,18.57
2019-01-04T08:22:30.193Z,18.58
2019-01-04T08:23:30.145Z,18.57
2019-01-04T08:24:30.290Z,18.57
2019-01-04T08:25:30.134Z,18.58
2019-01-04T08:26:30.319Z,18.56
2019-01-04T08:27:30.165Z,18.56
2019-01-04T08:28:29.902Z,18.57
2019-01-04T08:29:30.598Z,18.56
2019-01-04T08:30:30.311Z,18.56
2019-01-04T08:31:30.230Z,18.54
2019-01-04T08:32:31.027Z,18.53
2019-01-04T08:33:29.928Z,18.54
2019-01-04T08:34:30.906Z,18.51
2019-01-04T08:35:30.793Z,18.5
2019-01-04T08:36:30.004Z,18.53
2019-01-04T08:37:30.218Z,18.5
2019-01-04T08:38:29.802Z,18.54
2019-01-04T08:39:30.048Z,18.5
2019-01-04T08:40:30.239Z,18.5
2019-01-04T08:41:30.298Z,18.5
2019-01-04T08:42:30.419Z,18.51
2019-01-04T08:43:29.955Z,18.5
2019-01-04T08:44:30.127Z,18.49
2019-01-04T08:45:31.220Z,18.5
2019-01-04T08:46:30.350Z,18.49
2019-01-04T08:47:30.558Z,18.49
2019-01-04T08:48:30.350Z,18.47
2019-01-04T08:49:30.777Z,18.44
2019-01-04T08:50:30.587Z,18.47
2019-01-04T08:51:30.862Z,18.49
2019-01-04T08:52:30.507Z,18.47
2019-01-04T08:53:30.209Z,18.47
2019-01-04T08:54:30.245Z,18.49
2019-01-04T08:55:30.173Z,18.47
2019-01-04T08:56:30.011Z,18.49
2019-01-04T08:57:29.989Z,18.47
2019-01-04T08:58:30.242Z,18.47
2019-01-04T08:59:30.166Z,18.47
2019-01-04T09:00:30.461Z,18.46
2019-01-04T09:01:30.165Z,18.47
2019-01-04T09:02:30.141Z,18.44
2019-01-04T09:03:30.039Z,18.46
2019-01-04T09:04:30.023Z,18.44
2019-01-04T09:05:30.050Z,18.44
2019-01-04T09:06:30.230Z,18.43
2019-01-04T09:07:30.335Z,18.44
2019-01-04T09:08:30.184Z,18.43
2019-01-04T09:09:29.933Z,18.44
2019-01-04T09:10:30.066Z,18.44
2019-01-04T09:11:30.342Z,18.44
2019-01-04T09:12:30.116Z,18.43
2019-01-04T09:13:30.089Z,18.44
2019-01-04T09:14:30.193Z,18.44
2019-01-04T09:15:29.977Z,18.44
2019-01-04T09:16:30.116Z,18.46
2019-01-04T09:17:30.241Z,18.44
2019-01-04T09:18:29.983Z,18.46
2019-01-04T09:19:30.477Z,18.44
2019-01-04T09:20:30.039Z,18.43
2019-01-04T09:21:30.409Z,18.43
2019-01-04T09:22:30.555Z,18.43
2019-01-04T09:23:30.693Z,18.44
2019-01-04T09:24:30.415Z,18.44
2019-01-04T09:25:30.142Z,18.46
2019-01-04T09:26:30.153Z,18.43
2019-01-04T09:27:30.176Z,18.44
2019-01-04T09:28:30.115Z,18.46
2019-01-04T09:29:30.252Z,18.44
2019-01-04T09:30:30.622Z,18.46
2019-01-04T09:31:30.344Z,18.46
2019-01-04T09:32:31.285Z,18.43
2019-01-04T09:33:30.373Z,18.44
2019-01-04T09:34:30.115Z,18.44
2019-01-04T09:35:30.027Z,18.46
2019-01-04T09:36:30.137Z,18.44
2019-01-04T09:37:30.021Z,18.44
2019-01-04T09:38:30.337Z,18.49
2019-01-04T09:39:30.459Z,18.44
2019-01-04T09:40:30.030Z,18.44
2019-01-04T09:41:30.455Z,18.46
2019-01-04T09:42:30.155Z,18.44
2019-01-04T09:43:29.972Z,18.47
2019-01-04T09:44:30.147Z,18.49
2019-01-04T09:45:30.378Z,18.47
2019-01-04T09:46:31.411Z,18.47
2019-01-04T09:47:30.537Z,18.46
2019-01-04T09:48:30.377Z,18.47
2019-01-04T09:49:30.269Z,18.46
2019-01-04T09:50:30.301Z,18.47
2019-01-04T09:51:30.444Z,18.46
2019-01-04T09:52:30.234Z,18.47
2019-01-04T09:53:30.012Z,18.46
2019-01-04T09:54:30.590Z,18.46
2019-01-04T09:55:30.428Z,18.49
2019-01-04T09:56:30.796Z,18.46
2019-01-04T09:57:30.568Z,18.47
2019-01-04T09:58:29.985Z,18.46
2019-01-04T09:59:30.025Z,18.43
2019-01-04T10:00:30.478Z,18.44
2019-01-04T10:01:30.436Z,18.47
2019-01-04T10:02:30.407Z,18.44
2019-01-04T10:03:30.026Z,18.46
2019-01-04T10:04:30.412Z,18.44
2019-01-04T10:05:31.046Z,18.46
2019-01-04T10:06:30.321Z,18.44
2019-01-04T10:07:30.620Z,18.43
2019-01-04T10:08:30.129Z,18.44
2019-01-04T10:09:29.980Z,18.46
2019-01-04T10:10:30.475Z,18.43
2019-01-04T10:11:30.243Z,18.43
2019-01-04T10:12:30.280Z,18.43
2019-01-04T10:13:30.515Z,18.46
2019-01-04T10:14:30.955Z,18.43
2019-01-04T10:15:30.200Z,18.46
2019-01-04T10:16:30.386Z,18.44
2019-01-04T10:17:30.301Z,18.43
2019-01-04T10:18:29.906Z,18.44
2019-01-04T10:19:30.287Z,18.41
2019-01-04T10:20:30.475Z,18.44
2019-01-04T10:21:30.930Z,18.44
2019-01-04T10:22:29.961Z,18.43
2019-01-04T10:23:30.142Z,18.43
2019-01-04T10:24:30.174Z,18.41
2019-01-04T10:25:30.226Z,18.41
2019-01-04T10:26:29.857Z,18.43
2019-01-04T10:27:30.338Z,18.43
2019-01-04T10:28:30.304Z,18.41
2019-01-04T10:29:30.245Z,18.4
2019-01-04T10:30:30.390Z,18.41
2019-01-04T10:31:30.418Z,18.4
2019-01-04T10:32:30.019Z,18.39
2019-01-04T10:33:30.410Z,18.41
2019-01-04T10:34:30.890Z,18.39
2019-01-04T10:35:30.198Z,18.41
2019-01-04T10:36:30.052Z,18.4
2019-01-04T10:37:30.379Z,18.39
2019-01-04T10:38:30.130Z,18.37
2019-01-04T10:39:30.152Z,18.4
2019-01-04T10:40:30.484Z,18.39
2019-01-04T10:41:30.085Z,18.39
2019-01-04T10:42:29.993Z,18.4
2019-01-04T10:43:30.331Z,18.4
2019-01-04T10:44:30.256Z,18.39
2019-01-04T10:45:29.989Z,18.37
2019-01-04T10:46:30.186Z,18.39
2019-01-04T10:47:30.595Z,18.37
2019-01-04T10:48:30.253Z,18.37
2019-01-04T10:49:29.937Z,18.37
2019-01-04T10:50:30.095Z,18.37
2019-01-04T10:51:29.952Z,18.39
2019-01-04T10:52:30.124Z,18.35
2019-01-04T10:53:30.442Z,18.37
2019-01-04T10:54:30.118Z,18.35
2019-01-04T10:55:30.100Z,18.35
2019-01-04T10:56:29.836Z,18.37
2019-01-04T10:57:30.198Z,18.36
2019-01-04T10:58:30.156Z,18.36
2019-01-04T10:59:29.901Z,18.35
2019-01-04T11:00:30.067Z,18.36
2019-01-04T11:01:30.201Z,18.36
2019-01-04T11:02:30.068Z,18.35
2019-01-04T11:03:30.326Z,18.35
2019-01-04T11:04:29.948Z,18.35
2019-01-04T11:05:30.040Z,18.35
2019-01-04T11:06:30.133Z,18.33
2019-01-04T11:07:30.411Z,18.35
2019-01-04T11:08:30.048Z,18.35
2019-01-04T11:09:29.965Z,18.33
2019-01-04T11:10:30.027Z,18.35
2019-01-04T11:11:30.039Z,18.32
2019-01-04T11:12:30.358Z,18.33
2019-01-04T11:13:30.025Z,18.33
2019-01-04T11:14:29.944Z,18.33
2019-01-04T11:15:30.002Z,18.33
2019-01-04T11:16:30.623Z,18.32
2019-01-04T11:17:30.427Z,18.32
2019-01-04T11:18:30.250Z,18.32
2019-01-04T11:19:30.215Z,18.35
2019-01-04T11:20:30.232Z,18.33
2019-01-04T11:21:30.057Z,18.33
2019-01-04T11:22:30.472Z,18.35
2019-01-04T11:23:30.095Z,18.33
2019-01-04T11:24:30.673Z,18.32
2019-01-04T11:25:30.007Z,18.35
2019-01-04T11:26:30.502Z,18.32
2019-01-04T11:27:30.086Z,18.32
2019-01-04T11:28:30.362Z,18.33
2019-01-04T11:29:30.414Z,18.3
2019-01-04T11:30:29.968Z,18.32
2019-01-04T11:31:30.478Z,18.33
2019-01-04T11:32:29.941Z,18.32
2019-01-04T11:33:30.166Z,18.33
2019-01-04T11:34:30.499Z,18.33
2019-01-04T11:35:30.217Z,18.3
2019-01-04T11:36:30.122Z,18.32
2019-01-04T11:37:30.132Z,18.32
2019-01-04T11:38:30.146Z,18.33
2019-01-04T11:39:30.105Z,18.3
2019-01-04T11:40:30.599Z,18.32
2019-01-04T11:41:30.791Z,18.3
2019-01-04T11:42:30.486Z,18.3
2019-01-04T11:43:29.905Z,18.3
2019-01-04T11:44:30.167Z,18.3
2019-01-04T11:45:29.928Z,18.3
2019-01-04T11:46:30.173Z,18.32
2019-01-04T11:47:30.303Z,18.32
2019-01-04T11:48:29.911Z,18.32
2019-01-04T11:49:31.832Z,18.3
2019-01-04T11:50:30.237Z,18.32
2019-01-04T11:51:30.853Z,18.32
2019-01-04T11:52:31.625Z,18.32
2019-01-04T11:53:30.165Z,18.29
2019-01-04T11:54:30.140Z,18.32
2019-01-04T11:55:30.783Z,18.3
2019-01-04T11:56:29.999Z,18.3
2019-01-04T11:57:30.175Z,18.29
2019-01-04T11:58:29.935Z,18.32
2019-01-04T11:59:30.053Z,18.3
2019-01-04T12:00:30.462Z,18.32
2019-01-04T12:01:30.456Z,18.3
2019-01-04T12:02:30.078Z,18.3
2019-01-04T12:03:29.909Z,18.3
2019-01-04T12:04:30.016Z,18.26
2019-01-04T12:05:30.234Z,18.29
2019-01-04T12:06:30.315Z,18.3
2019-01-04T12:07:30.251Z,18.28
2019-01-04T12:08:30.376Z,18.29
2019-01-04T12:09:30.258Z,18.29
2019-01-04T12:10:30.712Z,18.29
2019-01-04T12:11:29.793Z,18.28
2019-01-04T12:12:30.202Z,18.32
2019-01-04T12:13:30.289Z,18.3
2019-01-04T12:14:29.827Z,18.29
2019-01-04T12:15:30.282Z,18.32
2019-01-04T12:16:29.917Z,18.33
2019-01-04T12:17:30.258Z,18.28
2019-01-04T12:18:31.001Z,18.28
2019-01-04T12:19:30.459Z,18.32
2019-01-04T12:20:30.247Z,18.3
2019-01-04T12:21:30.479Z,18.3
2019-01-04T12:22:30.312Z,18.29
2019-01-04T12:23:30.863Z,18.3
2019-01-04T12:24:29.996Z,18.3
2019-01-04T12:25:30.407Z,18.29
2019-01-04T12:26:29.899Z,18.29
2019-01-04T12:27:30.030Z,18.28
2019-01-04T12:28:29.968Z,18.28
2019-01-04T12:29:30.008Z,18.29
2019-01-04T12:30:30.100Z,18.29
2019-01-04T12:31:30.159Z,18.32
2019-01-04T12:32:29.913Z,18.29
2019-01-04T12:33:30.246Z,18.28
2019-01-04T12:34:30.053Z,18.29
2019-01-04T12:35:29.999Z,18.28
2019-01-04T12:36:30.394Z,18.29
2019-01-04T12:37:30.276Z,18.29
2019-01-04T12:38:30.071Z,18.26
2019-01-04T12:39:29.841Z,18.28
2019-01-04T12:40:29.886Z,18.28
2019-01-04T12:41:30.424Z,18.26
2019-01-04T12:42:29.930Z,18.28
2019-01-04T12:43:30.055Z,18.28
2019-01-04T12:44:29.833Z,18.28
2019-01-04T12:45:30.412Z,18.29
2019-01-04T12:46:30.349Z,18.26
2019-01-04T12:47:30.776Z,18.26
2019-01-04T12:48:30.068Z,18.26
2019-01-04T12:49:30.536Z,18.28
2019-01-04T12:50:30.014Z,18.29
2019-01-04T12:51:30.306Z,18.28
2019-01-04T12:52:29.997Z,18.26
2019-01-04T12:53:30.366Z,18.28
2019-01-04T12:54:30.292Z,18.28
2019-01-04T12:55:30.234Z,18.28